Time;durP1;ratioP1;P1;durP2;ratioP2;P2;SDS_P1;SDS_P2;PMS_P1;PMS_P2;Temp;Humidity;BMP_temperature;BMP_pressure;BME280_temperature;BME280_humidity;BME280_pressure;Samples;Min_cycle;Max_cycle;Signal;HPM_P1;HPM_P2
2023/12/18 00:00:36;;;;;;;;;;;;;;;19.86;44.44;102418.13;2098470;28;6074;-68
2023/12/18 00:01:38;;;;;;;;;;;;;;;19.87;44.37;102422.50;2097961;28;2085;-68
2023/12/18 00:02:39;;;;;;;;;;;;;;;19.85;44.38;102402.97;2100640;28;2165;-68
2023/12/18 00:03:41;;;;;;;;;;;;;;;19.85;44.50;102411.59;2097640;28;2113;-68
2023/12/18 00:04:42;;;;;;;;;;;;;;;19.85;44.41;102405.84;2099998;28;1594;-68
2023/12/18 00:05:43;;;;;;;;;;;;;;;19.85;44.45;102405.09;2101790;28;1581;-68
2023/12/18 00:06:45;;;;;;;;;;;;;;;19.85;44.47;102405.09;2099461;28;1745;-68
2023/12/18 00:07:46;;;;;;;;;;;;;;;19.86;44.41;102403.75;2100743;28;1865;-68
2023/12/18 00:08:48;;;;;;;;;;;;;;;19.85;44.33;102413.72;2101358;28;1660;-68
2023/12/18 00:09:49;;;;;;;;;;;;;;;19.84;44.41;102406.47;2100689;28;1633;-68
2023/12/18 00:10:51;;;;;;;;;;;;;;;19.84;44.36;102409.34;2102312;28;2075;-68
2023/12/18 00:11:52;;;;;;;;;;;;;;;19.84;44.36;102404.34;2099845;28;1944;-68
2023/12/18 00:12:53;;;;;;;;;;;;;;;19.84;44.35;102403.59;2100425;28;1929;-68
2023/12/18 00:13:55;;;;;;;;;;;;;;;19.84;44.37;102401.47;2101230;28;2089;-68
2023/12/18 00:14:56;;;;;;;;;;;;;;;19.83;44.36;102396.31;2102989;28;2050;-68
2023/12/18 00:15:58;;;;;;;;;;;;;;;19.84;44.37;102397.84;2099683;28;1780;-68
2023/12/18 00:16:59;;;;;;;;;;;;;;;19.83;44.51;102397.06;2103570;28;1688;-68
2023/12/18 00:18:00;;;;;;;;;;;;;;;19.83;44.38;102396.31;2101018;28;2065;-68
2023/12/18 00:19:04;;;;;;;;;;;;;;;19.83;44.35;102396.31;2101481;28;2203;-68
2023/12/18 00:20:06;;;;;;;;;;;;;;;19.84;44.35;102400.72;2098937;28;2201;-68
2023/12/18 00:21:07;;;;;;;;;;;;;;;19.82;44.41;102397.72;2101659;28;1735;-68
2023/12/18 00:22:09;;;;;;;;;;;;;;;19.83;44.40;102402.06;2099749;28;1836;-68
2023/12/18 00:23:10;;;;;;;;;;;;;;;19.82;44.46;102401.31;2100457;28;2166;-67
2023/12/18 00:24:11;;;;;;;;;;;;;;;19.81;44.33;102399.84;2102266;28;2202;-66
2023/12/18 00:25:13;;;;;;;;;;;;;;;19.81;44.40;102399.84;2100040;28;2379;-67
2023/12/18 00:26:14;;;;;;;;;;;;;;;19.81;44.31;102396.97;2099844;28;2126;-67
2023/12/18 00:27:16;;;;;;;;;;;;;;;19.80;44.33;102391.81;2103461;28;2082;-67
2023/12/18 00:28:17;;;;;;;;;;;;;;;19.81;44.48;102399.06;2102357;28;1622;-67
2023/12/18 00:29:19;;;;;;;;;;;;;;;19.80;44.29;102397.56;2099018;28;2089;-67
2023/12/18 00:30:20;;;;;;;;;;;;;;;19.81;44.31;102390.44;2103819;28;5960;-67
2023/12/18 00:31:22;;;;;;;;;;;;;;;19.81;44.39;102393.31;2102862;28;1976;-67
2023/12/18 00:32:23;;;;;;;;;;;;;;;19.80;44.26;102391.81;2097733;28;2040;-67
2023/12/18 00:33:26;;;;;;;;;;;;;;;19.80;44.34;102386.06;2098323;28;2082;-67
2023/12/18 00:34:27;;;;;;;;;;;;;;;19.78;44.37;102383.78;2101918;28;1816;-67
2023/12/18 00:35:29;;;;;;;;;;;;;;;19.78;44.37;102389.53;2101076;28;1847;-67
2023/12/18 00:36:30;;;;;;;;;;;;;;;19.78;44.26;102383.03;2103038;28;1820;-67
2023/12/18 00:37:32;;;;;;;;;;;;;;;19.76;44.34;102385.75;2097877;28;2143;-70
2023/12/18 00:38:33;;;;;;;;;;;;;;;19.77;44.39;102378.63;2099161;28;2141;-67
2023/12/18 00:39:35;;;;;;;;;;;;;;;19.77;44.28;102387.25;2104496;28;1564;-64
2023/12/18 00:40:36;;;;;;;;;;;;;;;19.78;44.22;102383.03;2104017;28;1544;-72
2023/12/18 00:41:38;;;;;;;;;;;;;;;19.78;44.33;102380.16;2103074;28;1585;-65
2023/12/18 00:42:39;;;;;;;;;;;;;;;19.78;44.17;102374.41;2103690;28;1550;-67
2023/12/18 00:43:40;;;;;;;;;;;;;;;19.77;44.30;102370.00;2100303;28;1607;-67
2023/12/18 00:44:42;;;;;;;;;;;;;;;19.76;44.33;102374.25;2101777;28;2318;-67
2023/12/18 00:45:43;;;;;;;;;;;;;;;19.76;44.27;102368.50;2100703;28;2144;-67
2023/12/18 00:46:45;;;;;;;;;;;;;;;19.77;44.30;102367.13;2101361;28;2261;-67
2023/12/18 00:47:46;;;;;;;;;;;;;;;19.75;44.41;102364.88;2099873;28;2037;-67
2023/12/18 00:48:47;;;;;;;;;;;;;;;19.75;44.28;102372.75;2099177;28;2065;-67
2023/12/18 00:49:49;;;;;;;;;;;;;;;19.75;44.29;102372.75;2100912;28;1669;-68
2023/12/18 00:50:50;;;;;;;;;;;;;;;19.74;44.20;102369.09;2101660;28;1898;-67
2023/12/18 00:51:52;;;;;;;;;;;;;;;19.73;44.22;102364.72;2100917;28;1934;-68
2023/12/18 00:52:53;;;;;;;;;;;;;;;19.74;44.30;102371.22;2101727;28;2142;-67
2023/12/18 00:53:55;;;;;;;;;;;;;;;19.74;44.22;102371.22;2100352;28;1863;-68
2023/12/18 00:54:56;;;;;;;;;;;;;;;19.75;44.28;102361.25;2101374;28;1839;-67
2023/12/18 00:55:57;;;;;;;;;;;;;;;19.74;44.25;102365.47;2103961;28;1817;-67
2023/12/18 00:56:59;;;;;;;;;;;;;;;19.75;44.31;102372.75;2102348;28;2109;-67
2023/12/18 00:58:00;;;;;;;;;;;;;;;19.74;44.33;102374.09;2101558;28;2040;-67
2023/12/18 00:59:02;;;;;;;;;;;;;;;19.75;44.29;102373.50;2103189;28;2045;-67
2023/12/18 01:00:04;;;;;;;;;;;;;;;19.74;44.32;102369.09;2101044;28;1581;-67
2023/12/18 01:01:06;;;;;;;;;;;;;;;19.74;44.35;102371.22;2105017;28;5980;-67
2023/12/18 01:02:07;;;;;;;;;;;;;;;19.73;44.23;102373.34;2103088;28;1767;-67
2023/12/18 01:03:09;;;;;;;;;;;;;;;19.73;44.16;102367.59;2102345;28;1867;-67
2023/12/18 01:04:11;;;;;;;;;;;;;;;19.73;44.25;102366.84;2101554;28;2131;-68
2023/12/18 01:05:13;;;;;;;;;;;;;;;19.72;44.22;102362.47;2101809;28;1554;-67
2023/12/18 01:06:15;;;;;;;;;;;;;;;19.72;44.33;102357.47;2098715;28;1617;-67
2023/12/18 01:07:16;;;;;;;;;;;;;;;19.71;44.34;102366.69;2100310;28;2102;-67
2023/12/18 01:08:18;;;;;;;;;;;;;;;19.71;44.29;102369.56;2101272;28;2080;-67
2023/12/18 01:09:19;;;;;;;;;;;;;;;19.70;44.22;102362.31;2101172;28;2095;-67
2023/12/18 01:10:21;;;;;;;;;;;;;;;19.72;44.24;102368.19;2102399;28;1639;-68
2023/12/18 01:11:22;;;;;;;;;;;;;;;19.72;44.22;102359.59;2101927;28;1910;-67
2023/12/18 01:12:24;;;;;;;;;;;;;;;19.71;44.21;102358.09;2102231;28;1665;-67
2023/12/18 01:13:25;;;;;;;;;;;;;;;19.70;44.25;102353.69;2099395;28;1510;-67
2023/12/18 01:14:27;;;;;;;;;;;;;;;19.70;44.18;102359.44;2101395;28;1562;-68
2023/12/18 01:15:28;;;;;;;;;;;;;;;19.70;44.19;102360.22;2103640;28;1590;-67
2023/12/18 01:16:30;;;;;;;;;;;;;;;19.70;44.31;102365.94;2098860;28;1894;-67
2023/12/18 01:17:31;;;;;;;;;;;;;;;19.70;44.29;102362.31;2102059;28;1949;-67
2023/12/18 01:18:37;;;;;;;;;;;;;;;19.70;44.34;102368.81;2097927;28;1840;-67
2023/12/18 01:19:39;;;;;;;;;;;;;;;19.69;44.28;102363.69;2100209;28;1561;-68
2023/12/18 01:20:40;;;;;;;;;;;;;;;19.69;44.15;102358.69;2100625;28;1597;-67
2023/12/18 01:21:42;;;;;;;;;;;;;;;19.69;44.26;102369.44;2101400;28;1724;-67
2023/12/18 01:22:43;;;;;;;;;;;;;;;19.69;44.21;102370.19;2100929;28;2140;-67
2023/12/18 01:23:47;;;;;;;;;;;;;;;19.69;44.16;102363.69;2104831;28;2188;-67
2023/12/18 01:24:48;;;;;;;;;;;;;;;19.69;44.14;102358.69;2110413;28;1676;-67
2023/12/18 01:25:50;;;;;;;;;;;;;;;19.69;44.31;102355.06;2102499;28;1597;-68
2023/12/18 01:26:51;;;;;;;;;;;;;;;19.68;44.30;102354.28;2099557;28;2125;-67
2023/12/18 01:27:53;;;;;;;;;;;;;;;19.69;44.30;102355.06;2097990;28;2446;-68
2023/12/18 01:28:54;;;;;;;;;;;;;;;19.67;44.11;102350.63;2100368;28;1717;-68
2023/12/18 01:29:55;;;;;;;;;;;;;;;19.68;44.39;102351.41;2101450;28;1934;-67
2023/12/18 01:30:57;;;;;;;;;;;;;;;19.69;44.14;102352.19;2099061;28;6356;-67
2023/12/18 01:31:58;;;;;;;;;;;;;;;19.67;44.37;102353.50;2103179;28;1993;-67
2023/12/18 01:33:00;;;;;;;;;;;;;;;19.66;44.26;102354.88;2101455;28;1609;-67
2023/12/18 01:34:01;;;;;;;;;;;;;;;19.67;44.08;102362.13;2098531;28;1796;-68
2023/12/18 01:35:03;;;;;;;;;;;;;;;19.68;44.29;102351.41;2103683;28;1780;-66
2023/12/18 01:36:04;;;;;;;;;;;;;;;19.66;44.15;102349.13;2102960;28;1630;-66
2023/12/18 01:37:06;;;;;;;;;;;;;;;19.65;44.26;102350.50;2102248;28;1909;-66
2023/12/18 01:38:09;;;;;;;;;;;;;;;19.65;44.30;102347.63;2103779;28;2001;-67
2023/12/18 01:39:10;;;;;;;;;;;;;;;19.65;44.31;102347.63;2100329;28;2011;-66
2023/12/18 01:40:12;;;;;;;;;;;;;;;19.66;44.09;102346.25;2100655;28;2212;-66
2023/12/18 01:41:13;;;;;;;;;;;;;;;19.65;44.26;102347.63;2097565;28;2098;-66
2023/12/18 01:42:14;;;;;;;;;;;;;;;19.66;44.28;102348.38;2100852;28;1557;-66
2023/12/18 01:43:23;;;;;;;;;;;;;;;19.65;44.24;102344.75;2102311;28;1951;-66
2023/12/18 01:44:24;;;;;;;;;;;;;;;19.65;44.16;102353.38;2098811;28;2044;-66
2023/12/18 01:45:26;;;;;;;;;;;;;;;19.65;44.20;102352.59;2101525;28;1514;-66
2023/12/18 01:46:27;;;;;;;;;;;;;;;19.65;44.31;102356.25;2100950;28;2072;-66
2023/12/18 01:47:28;;;;;;;;;;;;;;;19.64;44.39;102351.84;2109583;28;1991;-66
2023/12/18 01:48:30;;;;;;;;;;;;;;;19.64;44.36;102356.84;2098171;28;2332;-66
2023/12/18 01:49:31;;;;;;;;;;;;;;;19.64;44.30;102351.84;2095448;28;2279;-66
2023/12/18 01:50:33;;;;;;;;;;;;;;;19.64;44.22;102351.84;2101257;28;1711;-66
2023/12/18 01:51:35;;;;;;;;;;;;;;;19.63;44.11;102356.09;2101399;28;2129;-66
2023/12/18 01:52:37;;;;;;;;;;;;;;;19.63;44.32;102353.22;2101875;28;1605;-66
2023/12/18 01:53:39;;;;;;;;;;;;;;;19.63;44.34;102341.72;2100714;28;1585;-66
2023/12/18 01:54:40;;;;;;;;;;;;;;;19.63;44.35;102355.31;2100256;28;2105;-66
2023/12/18 01:55:42;;;;;;;;;;;;;;;19.63;44.23;102344.59;2100718;28;2106;-66
2023/12/18 01:56:43;;;;;;;;;;;;;;;19.62;44.13;102360.31;2097864;28;1796;-66
2023/12/18 01:57:44;;;;;;;;;;;;;;;19.62;44.09;102357.44;2102396;28;1992;-66
2023/12/18 01:58:46;;;;;;;;;;;;;;;19.63;44.22;102355.31;2098931;28;1520;-67
2023/12/18 01:59:48;;;;;;;;;;;;;;;19.63;44.23;102346.69;2101253;28;2169;-66
2023/12/18 02:00:49;;;;;;;;;;;;;;;19.63;44.19;102350.34;2094383;28;5961;-67
2023/12/18 02:01:51;;;;;;;;;;;;;;;19.63;44.11;102350.34;2101104;28;1829;-66
2023/12/18 02:02:52;;;;;;;;;;;;;;;19.64;44.14;102346.09;2101633;28;2128;-66
2023/12/18 02:03:54;;;;;;;;;;;;;;;19.63;44.20;102350.34;2102503;28;1558;-66
2023/12/18 02:04:55;;;;;;;;;;;;;;;19.62;44.23;102354.56;2102656;28;2065;-66
2023/12/18 02:05:57;;;;;;;;;;;;;;;19.63;44.26;102352.44;2100444;28;2026;-66
2023/12/18 02:06:58;;;;;;;;;;;;;;;19.62;44.14;102354.56;2100314;28;1646;-66
2023/12/18 02:08:00;;;;;;;;;;;;;;;19.62;44.28;102354.56;2095861;28;2076;-66
2023/12/18 02:09:01;;;;;;;;;;;;;;;19.62;44.33;102353.81;2092693;28;2243;-66
2023/12/18 02:10:04;;;;;;;;;;;;;;;19.62;44.12;102359.56;2093975;28;2242;-66
2023/12/18 02:11:05;;;;;;;;;;;;;;;19.61;44.17;102355.94;2099041;28;1528;-66
2023/12/18 02:12:06;;;;;;;;;;;;;;;19.61;44.23;102364.56;2099949;28;1967;-66
2023/12/18 02:13:08;;;;;;;;;;;;;;;19.60;44.25;102363.03;2102280;28;1658;-66
2023/12/18 02:14:09;;;;;;;;;;;;;;;19.59;44.27;102358.66;2101887;28;1566;-66
2023/12/18 02:15:11;;;;;;;;;;;;;;;19.60;44.19;102351.56;2099971;28;2160;-66
2023/12/18 02:16:12;;;;;;;;;;;;;;;19.60;44.21;102351.56;2098532;28;1551;-66
2023/12/18 02:17:14;;;;;;;;;;;;;;;19.60;44.22;102351.56;2098336;28;1804;-66
2023/12/18 02:18:15;;;;;;;;;;;;;;;19.60;44.22;102357.28;2099115;28;2230;-66
2023/12/18 02:19:23;;;;;;;;;;;;;;;19.59;44.15;102349.31;2100001;28;1589;-66
2023/12/18 02:20:25;;;;;;;;;;;;;;;19.59;44.25;102350.06;2101625;28;1535;-66
2023/12/18 02:21:26;;;;;;;;;;;;;;;19.58;44.16;102351.41;2101753;28;1976;-66
2023/12/18 02:22:28;;;;;;;;;;;;;;;19.59;44.10;102350.06;2100918;28;2078;-66
2023/12/18 02:23:29;;;;;;;;;;;;;;;19.59;44.14;102352.94;2099921;28;2077;-66
2023/12/18 02:24:31;;;;;;;;;;;;;;;19.58;44.30;102348.53;2100836;28;1499;-66
2023/12/18 02:25:33;;;;;;;;;;;;;;;19.59;44.21;102344.31;2100057;28;1708;-66
2023/12/18 02:26:34;;;;;;;;;;;;;;;19.59;44.16;102355.06;2101275;28;2159;-66
2023/12/18 02:27:36;;;;;;;;;;;;;;;19.58;44.19;102348.53;2097197;28;1804;-66
2023/12/18 02:28:37;;;;;;;;;;;;;;;19.58;44.18;102342.78;2101752;28;1544;-68
2023/12/18 02:29:39;;;;;;;;;;;;;;;19.58;44.32;102337.03;2092487;28;2020;-68
2023/12/18 02:30:40;;;;;;;;;;;;;;;19.57;44.20;102341.28;2097293;28;6161;-68
2023/12/18 02:31:41;;;;;;;;;;;;;;;19.57;44.21;102341.28;2098799;28;1603;-69
2023/12/18 02:32:43;;;;;;;;;;;;;;;19.58;44.16;102342.03;2100577;28;1914;-68
2023/12/18 02:33:48;;;;;;;;;;;;;;;19.58;44.15;102331.28;2100809;28;1595;-68
2023/12/18 02:34:50;;;;;;;;;;;;;;;19.57;44.24;102335.53;2100478;28;2172;-68
2023/12/18 02:35:52;;;;;;;;;;;;;;;19.58;44.25;102339.16;2098954;28;2089;-68
2023/12/18 02:36:53;;;;;;;;;;;;;;;19.57;44.25;102335.53;2102931;28;1532;-67
2023/12/18 02:37:54;;;;;;;;;;;;;;;19.57;44.26;102332.66;2099177;28;2105;-68
2023/12/18 02:38:56;;;;;;;;;;;;;;;19.58;44.24;102342.78;2101743;28;1564;-68
2023/12/18 02:39:57;;;;;;;;;;;;;;;19.57;44.17;102335.53;2101465;28;1831;-68
2023/12/18 02:40:59;;;;;;;;;;;;;;;19.57;44.13;102338.41;2098028;28;2199;-68
2023/12/18 02:42:00;;;;;;;;;;;;;;;19.58;44.25;102336.28;2100980;28;1812;-67
2023/12/18 02:43:02;;;;;;;;;;;;;;;19.56;44.20;102339.78;2102347;28;1724;-68
2023/12/18 02:44:03;;;;;;;;;;;;;;;19.58;44.22;102342.78;2100546;28;1605;-68
2023/12/18 02:45:05;;;;;;;;;;;;;;;19.57;44.13;102335.53;2103585;28;2100;-68
2023/12/18 02:46:06;;;;;;;;;;;;;;;19.57;44.15;102337.66;2100882;28;2104;-67
2023/12/18 02:47:07;;;;;;;;;;;;;;;19.58;44.07;102336.28;2099963;28;2427;-67
2023/12/18 02:48:09;;;;;;;;;;;;;;;19.57;44.13;102334.78;2098514;28;2104;-68
2023/12/18 02:49:10;;;;;;;;;;;;;;;19.57;44.26;102329.03;2097818;28;1591;-67
2023/12/18 02:50:12;;;;;;;;;;;;;;;19.57;44.17;102329.78;2097946;28;2208;-67
2023/12/18 02:51:13;;;;;;;;;;;;;;;19.56;44.20;102328.28;2098562;28;2123;-68
2023/12/18 02:52:15;;;;;;;;;;;;;;;19.56;44.22;102331.16;2098011;28;2077;-68
2023/12/18 02:53:17;;;;;;;;;;;;;;;19.55;44.16;102326.75;2099989;28;2450;-67
2023/12/18 02:54:19;;;;;;;;;;;;;;;19.55;44.23;102337.50;2098997;28;1858;-67
2023/12/18 02:55:20;;;;;;;;;;;;;;;19.54;44.26;102328.13;2097142;28;1625;-68
2023/12/18 02:56:23;;;;;;;;;;;;;;;19.55;44.23;102331.75;2101505;28;2070;-68
2023/12/18 02:57:24;;;;;;;;;;;;;;;19.55;44.09;102326.00;2100335;28;1526;-67
2023/12/18 02:58:26;;;;;;;;;;;;;;;19.55;44.21;102326.75;2100589;28;1853;-67
2023/12/18 02:59:27;;;;;;;;;;;;;;;19.55;44.15;102331.75;2101681;28;1642;-67
2023/12/18 03:00:28;;;;;;;;;;;;;;;19.55;44.21;102334.63;2097775;28;6126;-67
2023/12/18 03:01:30;;;;;;;;;;;;;;;19.55;44.14;102332.50;2098686;28;2275;-67
2023/12/18 03:02:31;;;;;;;;;;;;;;;19.54;44.10;102325.25;2099843;28;2341;-67
2023/12/18 03:03:33;;;;;;;;;;;;;;;19.54;44.11;102333.88;2099552;28;2248;-67
2023/12/18 03:04:38;;;;;;;;;;;;;;;19.54;44.14;102331.00;2096769;28;2050;-67
2023/12/18 03:05:39;;;;;;;;;;;;;;;19.54;44.13;102325.25;2100397;28;1918;-68
2023/12/18 03:06:40;;;;;;;;;;;;;;;19.54;44.15;102325.25;2103435;28;1620;-68
2023/12/18 03:07:42;;;;;;;;;;;;;;;19.54;44.19;102331.00;2102113;28;1630;-67
2023/12/18 03:08:44;;;;;;;;;;;;;;;19.54;44.21;102331.00;2101407;28;1976;-67
2023/12/18 03:09:45;;;;;;;;;;;;;;;19.54;44.24;102339.63;2097025;28;1582;-68
2023/12/18 03:10:47;;;;;;;;;;;;;;;19.54;44.17;102330.22;2099525;28;2028;-67
2023/12/18 03:11:48;;;;;;;;;;;;;;;19.54;44.11;102331.00;2098782;28;1526;-67
2023/12/18 03:12:50;;;;;;;;;;;;;;;19.54;44.13;102336.75;2099863;28;2161;-67
2023/12/18 03:13:51;;;;;;;;;;;;;;;19.54;44.13;102336.75;2100317;28;1801;-67
2023/12/18 03:14:52;;;;;;;;;;;;;;;19.54;44.14;102331.00;2099963;28;1562;-68
2023/12/18 03:15:55;;;;;;;;;;;;;;;19.53;44.02;102329.47;2102003;28;1544;-66
2023/12/18 03:16:56;;;;;;;;;;;;;;;19.53;44.18;102334.47;2101047;28;1629;-66
2023/12/18 03:17:58;;;;;;;;;;;;;;;19.53;44.21;102335.22;2099250;28;2146;-66
2023/12/18 03:18:59;;;;;;;;;;;;;;;19.53;44.16;102340.97;2103060;28;1558;-66
2023/12/18 03:20:01;;;;;;;;;;;;;;;19.52;44.21;102345.22;2100517;28;1598;-66
2023/12/18 03:21:02;;;;;;;;;;;;;;;19.52;44.22;102345.22;2099764;28;1985;-66
2023/12/18 03:22:04;;;;;;;;;;;;;;;19.53;44.18;102340.22;2099759;28;2081;-66
2023/12/18 03:23:05;;;;;;;;;;;;;;;19.52;44.21;102342.34;2099056;28;1581;-66
2023/12/18 03:24:07;;;;;;;;;;;;;;;19.52;44.18;102339.47;2101762;28;1484;-66
2023/12/18 03:25:08;;;;;;;;;;;;;;;19.53;44.23;102335.22;2098280;28;1803;-66
2023/12/18 03:26:09;;;;;;;;;;;;;;;19.53;44.13;102346.72;2097497;28;2126;-66
2023/12/18 03:27:11;;;;;;;;;;;;;;;19.52;44.14;102336.59;2098313;28;1550;-66
2023/12/18 03:28:13;;;;;;;;;;;;;;;19.52;44.27;102339.47;2097708;28;1830;-66
2023/12/18 03:29:14;;;;;;;;;;;;;;;19.51;44.19;102340.06;2098825;28;1617;-66
2023/12/18 03:30:16;;;;;;;;;;;;;;;19.51;44.19;102349.44;2100522;28;6129;-66
2023/12/18 03:31:17;;;;;;;;;;;;;;;19.51;44.22;102334.31;2097658;28;2067;-66
2023/12/18 03:32:19;;;;;;;;;;;;;;;19.52;44.18;102338.72;2101133;28;1531;-66
2023/12/18 03:33:20;;;;;;;;;;;;;;;19.51;44.24;102340.81;2102762;28;1987;-66
2023/12/18 03:34:22;;;;;;;;;;;;;;;19.50;44.22;102336.44;2096150;28;1627;-66
2023/12/18 03:35:24;;;;;;;;;;;;;;;19.51;44.20;102348.69;2097443;28;1680;-66
2023/12/18 03:36:25;;;;;;;;;;;;;;;19.51;44.00;102342.94;2098309;28;2078;-66
2023/12/18 03:37:26;;;;;;;;;;;;;;;19.50;44.17;102336.44;2102165;28;1638;-68
2023/12/18 03:38:28;;;;;;;;;;;;;;;19.51;44.10;102342.94;2098875;28;1987;-68
2023/12/18 03:39:29;;;;;;;;;;;;;;;19.51;44.08;102340.81;2100861;28;1492;-69
2023/12/18 03:40:31;;;;;;;;;;;;;;;19.52;44.19;102348.09;2100020;28;1525;-68
2023/12/18 03:41:32;;;;;;;;;;;;;;;19.51;44.14;102343.69;2095945;28;2703;-67
2023/12/18 03:42:34;;;;;;;;;;;;;;;19.51;44.13;102332.19;2099901;28;1691;-68
2023/12/18 03:43:35;;;;;;;;;;;;;;;19.52;44.21;102333.72;2099614;28;1598;-66
2023/12/18 03:44:37;;;;;;;;;;;;;;;19.53;44.25;102335.22;2103617;28;1634;-68
2023/12/18 03:45:38;;;;;;;;;;;;;;;19.52;44.13;102339.47;2097687;28;2141;-68
2023/12/18 03:46:39;;;;;;;;;;;;;;;19.55;44.26;102343.25;2101749;28;2367;-68
2023/12/18 03:47:41;;;;;;;;;;;;;;;19.54;44.08;102342.50;2101157;28;1593;-68
2023/12/18 03:48:43;;;;;;;;;;;;;;;19.56;44.22;102345.53;2101350;28;2098;-68
2023/12/18 03:49:44;;;;;;;;;;;;;;;19.57;44.26;102343.41;2102098;28;1573;-67
2023/12/18 03:50:46;;;;;;;;;;;;;;;19.57;44.24;102335.53;2094091;28;2119;-68
2023/12/18 03:51:47;;;;;;;;;;;;;;;19.57;44.21;102341.28;2093428;28;1814;-67
2023/12/18 03:52:49;;;;;;;;;;;;;;;19.58;44.21;102339.91;2099408;28;2152;-68
2023/12/18 03:53:50;;;;;;;;;;;;;;;19.60;44.24;102345.06;2099596;28;1889;-69
2023/12/18 03:54:52;;;;;;;;;;;;;;;19.60;44.21;102348.69;2100041;28;1589;-68
2023/12/18 03:55:53;;;;;;;;;;;;;;;19.61;44.12;102340.84;2101202;28;1577;-68
2023/12/18 03:56:54;;;;;;;;;;;;;;;19.61;44.10;102347.31;2100149;28;1554;-68
2023/12/18 03:57:56;;;;;;;;;;;;;;;19.61;44.26;102350.19;2098272;28;2204;-68
2023/12/18 03:58:57;;;;;;;;;;;;;;;19.61;44.09;102350.19;2097884;28;1590;-68
2023/12/18 03:59:59;;;;;;;;;;;;;;;19.62;44.32;102354.56;2100262;28;1815;-68
2023/12/18 04:01:00;;;;;;;;;;;;;;;19.62;44.33;102345.94;2100641;28;5967;-68
2023/12/18 04:02:02;;;;;;;;;;;;;;;19.62;44.22;102351.69;2101802;28;2070;-68
2023/12/18 04:03:04;;;;;;;;;;;;;;;19.62;44.31;102345.94;2097876;28;2033;-68
2023/12/18 04:04:06;;;;;;;;;;;;;;;19.62;44.31;102345.94;2101690;28;2153;-68
2023/12/18 04:05:07;;;;;;;;;;;;;;;19.63;44.37;102344.59;2108518;28;2354;-67
2023/12/18 04:06:09;;;;;;;;;;;;;;;19.63;44.21;102338.84;2102311;28;1565;-67
2023/12/18 04:07:10;;;;;;;;;;;;;;;19.62;44.23;102343.09;2100814;28;1625;-67
2023/12/18 04:08:12;;;;;;;;;;;;;;;19.62;44.34;102345.94;2099256;28;1557;-68
2023/12/18 04:09:13;;;;;;;;;;;;;;;19.62;44.26;102348.81;2100719;28;2005;-67
2023/12/18 04:10:14;;;;;;;;;;;;;;;19.62;44.31;102345.22;2097938;28;1624;-67
2023/12/18 04:11:16;;;;;;;;;;;;;;;19.63;44.41;102346.69;2103362;28;1633;-67
2023/12/18 04:12:17;;;;;;;;;;;;;;;19.62;44.36;102351.69;2099691;28;2112;-68
2023/12/18 04:13:19;;;;;;;;;;;;;;;19.63;44.41;102338.84;2100966;28;1984;-67
2023/12/18 04:14:20;;;;;;;;;;;;;;;19.62;44.34;102351.69;2102005;28;1919;-68
2023/12/18 04:15:22;;;;;;;;;;;;;;;19.62;44.49;102348.81;2100862;28;1542;-67
2023/12/18 04:16:23;;;;;;;;;;;;;;;19.63;44.31;102343.81;2102159;28;2009;-68
2023/12/18 04:17:24;;;;;;;;;;;;;;;19.63;44.32;102350.34;2099883;28;1858;-67
2023/12/18 04:18:26;;;;;;;;;;;;;;;19.63;44.32;102344.59;2097943;28;1873;-68
2023/12/18 04:19:28;;;;;;;;;;;;;;;19.65;44.43;102344.75;2100363;28;2295;-67
2023/12/18 04:20:29;;;;;;;;;;;;;;;19.64;44.31;102346.09;2099171;28;1578;-68
2023/12/18 04:21:31;;;;;;;;;;;;;;;19.65;44.14;102341.88;2103032;28;1638;-67
2023/12/18 04:22:32;;;;;;;;;;;;;;;19.66;44.38;102334.00;2096675;28;2098;-67
2023/12/18 04:23:34;;;;;;;;;;;;;;;19.66;44.44;102337.63;2101471;28;1653;-67
2023/12/18 04:24:35;;;;;;;;;;;;;;;19.67;44.48;102321.88;2100666;28;2085;-67
2023/12/18 04:25:37;;;;;;;;;;;;;;;19.67;44.34;102327.63;2102973;28;1723;-67
2023/12/18 04:26:38;;;;;;;;;;;;;;;19.67;44.40;102327.63;2103327;28;1595;-67
2023/12/18 04:27:39;;;;;;;;;;;;;;;19.69;44.49;102332.06;2100065;28;1995;-67
2023/12/18 04:28:41;;;;;;;;;;;;;;;19.69;44.31;102327.06;2100442;28;1560;-67
2023/12/18 04:29:43;;;;;;;;;;;;;;;19.68;44.30;102328.41;2100300;28;1737;-67
2023/12/18 04:30:44;;;;;;;;;;;;;;;19.69;44.47;102326.31;2098951;28;6236;-67
2023/12/18 04:31:46;;;;;;;;;;;;;;;19.68;44.35;102322.66;2099891;28;1557;-67
2023/12/18 04:32:48;;;;;;;;;;;;;;;19.69;44.44;102327.06;2099456;28;2166;-67
2023/12/18 04:33:49;;;;;;;;;;;;;;;19.68;44.46;102325.53;2100110;28;2077;-68
2023/12/18 04:34:51;;;;;;;;;;;;;;;19.70;44.52;102330.69;2098956;28;2077;-67
2023/12/18 04:35:52;;;;;;;;;;;;;;;19.69;44.46;102332.81;2098228;28;1765;-67
2023/12/18 04:36:53;;;;;;;;;;;;;;;19.69;44.52;102320.56;2099878;28;2024;-67
2023/12/18 04:37:55;;;;;;;;;;;;;;;19.69;44.52;102320.56;2097997;28;1602;-66
2023/12/18 04:38:56;;;;;;;;;;;;;;;19.68;44.54;102322.66;2100933;28;1962;-67
2023/12/18 04:39:58;;;;;;;;;;;;;;;19.69;44.45;102323.44;2099523;28;1863;-67
2023/12/18 04:40:59;;;;;;;;;;;;;;;19.69;44.54;102317.69;2099468;28;1650;-67
2023/12/18 04:42:01;;;;;;;;;;;;;;;19.67;44.55;102321.88;2102433;28;2114;-67
2023/12/18 04:43:02;;;;;;;;;;;;;;;19.67;44.53;102321.88;2097341;28;2028;-66
2023/12/18 04:44:05;;;;;;;;;;;;;;;19.69;44.45;102323.44;2101488;28;1573;-67
2023/12/18 04:45:07;;;;;;;;;;;;;;;19.69;44.61;102326.31;2100394;28;2199;-66
2023/12/18 04:46:08;;;;;;;;;;;;;;;19.69;44.53;102323.44;2099438;28;1821;-67
2023/12/18 04:47:10;;;;;;;;;;;;;;;19.67;44.51;102327.63;2097385;28;1824;-67
2023/12/18 04:48:11;;;;;;;;;;;;;;;19.67;44.71;102321.88;2097224;28;1594;-67
2023/12/18 04:49:13;;;;;;;;;;;;;;;19.67;44.54;102330.50;2099367;28;2173;-66
2023/12/18 04:50:14;;;;;;;;;;;;;;;19.69;44.53;102329.19;2100767;28;2032;-66
2023/12/18 04:51:16;;;;;;;;;;;;;;;19.69;44.62;102317.69;2096673;28;2074;-67
2023/12/18 04:52:17;;;;;;;;;;;;;;;19.69;44.51;102318.44;2098753;28;2104;-67
2023/12/18 04:53:19;;;;;;;;;;;;;;;19.69;44.61;102320.56;2102276;28;1938;-67
2023/12/18 04:54:20;;;;;;;;;;;;;;;19.69;44.53;102318.44;2098388;28;1632;-67
2023/12/18 04:55:22;;;;;;;;;;;;;;;19.70;44.49;102319.19;2099305;28;2050;-67
2023/12/18 04:56:23;;;;;;;;;;;;;;;19.71;44.45;102320.72;2102154;28;2090;-67
2023/12/18 04:57:25;;;;;;;;;;;;;;;19.72;44.44;102310.72;2100279;28;2086;-67
2023/12/18 04:58:26;;;;;;;;;;;;;;;19.72;44.43;102310.72;2100851;28;2171;-67
2023/12/18 04:59:28;;;;;;;;;;;;;;;19.71;44.59;102314.97;2101036;28;2129;-67
2023/12/18 05:00:29;;;;;;;;;;;;;;;19.73;44.51;102315.13;2099940;28;6437;-67
2023/12/18 05:01:31;;;;;;;;;;;;;;;19.74;44.54;102308.00;2097780;28;2530;-67
2023/12/18 05:02:32;;;;;;;;;;;;;;;19.72;44.70;102304.97;2099874;28;2054;-67
2023/12/18 05:03:33;;;;;;;;;;;;;;;19.73;44.66;102315.13;2101847;28;1991;-67
2023/12/18 05:04:39;;;;;;;;;;;;;;;19.74;44.58;102313.75;2100909;28;2028;-67
2023/12/18 05:05:40;;;;;;;;;;;;;;;19.74;44.63;102314.50;2101034;28;1550;-67
2023/12/18 05:06:42;;;;;;;;;;;;;;;19.74;44.50;102308.75;2102183;28;1847;-67
2023/12/18 05:07:44;;;;;;;;;;;;;;;19.75;44.45;102315.28;2098850;28;1721;-68
2023/12/18 05:08:45;;;;;;;;;;;;;;;19.73;44.61;102315.13;2102161;28;1570;-67
2023/12/18 05:09:46;;;;;;;;;;;;;;;19.73;44.66;102318.00;2100856;28;1828;-68
2023/12/18 05:10:50;;;;;;;;;;;;;;;19.74;44.62;102313.75;2102514;28;1656;-67
2023/12/18 05:11:51;;;;;;;;;;;;;;;19.74;44.65;102314.50;2099063;28;2064;-68
2023/12/18 05:12:52;;;;;;;;;;;;;;;19.73;44.70;102315.88;2099990;28;1750;-67
2023/12/18 05:13:54;;;;;;;;;;;;;;;19.74;44.63;102319.50;2100649;28;1917;-67
2023/12/18 05:14:55;;;;;;;;;;;;;;;19.75;44.66;102315.28;2100241;28;1513;-67
2023/12/18 05:15:59;;;;;;;;;;;;;;;19.74;44.71;102314.50;2101503;28;1558;-67
2023/12/18 05:17:00;;;;;;;;;;;;;;;19.75;44.58;102321.00;2098147;28;1554;-67
2023/12/18 05:18:01;;;;;;;;;;;;;;;19.75;44.51;102318.16;2101552;28;1634;-67
2023/12/18 05:19:03;;;;;;;;;;;;;;;19.75;44.55;102321.00;2100536;28;1609;-67
2023/12/18 05:20:06;;;;;;;;;;;;;;;19.74;44.68;102310.88;2103817;28;1447;-68
2023/12/18 05:21:07;;;;;;;;;;;;;;;19.74;44.66;102310.88;2099485;28;1597;-67